sensor_id;sensor_type;location;lat;lon;timestamp;P1;durP1;ratioP1;P2;durP2;ratioP2
42384;SDS011;28042;43.986;22.860;2023-04-21T00:00:51;8.98;;;5.50;;
42384;SDS011;28042;43.986;22.860;2023-04-21T00:03:18;11.02;;;5.63;;
42384;SDS011;28042;43.986;22.860;2023-04-21T00:08:12;10.80;;;6.32;;
42384;SDS011;28042;43.986;22.860;2023-04-21T00:10:38;8.65;;;6.32;;
42384;SDS011;28042;43.986;22.860;2023-04-21T00:13:04;10.77;;;6.55;;
42384;SDS011;28042;43.986;22.860;2023-04-21T00:15:29;9.90;;;6.97;;
42384;SDS011;28042;43.986;22.860;2023-04-21T00:17:55;10.20;;;6.35;;
42384;SDS011;28042;43.986;22.860;2023-04-21T00:20:22;9.85;;;6.35;;
42384;SDS011;28042;43.986;22.860;2023-04-21T00:22:48;9.65;;;6.47;;
42384;SDS011;28042;43.986;22.860;2023-04-21T00:25:14;9.07;;;6.70;;
42384;SDS011;28042;43.986;22.860;2023-04-21T00:27:40;10.63;;;7.28;;
42384;SDS011;28042;43.986;22.860;2023-04-21T00:30:05;9.73;;;7.50;;
42384;SDS011;28042;43.986;22.860;2023-04-21T00:32:31;10.52;;;7.50;;
42384;SDS011;28042;43.986;22.860;2023-04-21T00:34:57;12.88;;;7.60;;
42384;SDS011;28042;43.986;22.860;2023-04-21T00:37:22;12.90;;;7.25;;
42384;SDS011;28042;43.986;22.860;2023-04-21T00:39:48;9.20;;;6.97;;
42384;SDS011;28042;43.986;22.860;2023-04-21T00:42:14;10.68;;;7.57;;
42384;SDS011;28042;43.986;22.860;2023-04-21T00:44:41;13.57;;;7.57;;
42384;SDS011;28042;43.986;22.860;2023-04-21T00:47:06;9.02;;;6.72;;
42384;SDS011;28042;43.986;22.860;2023-04-21T00:49:31;8.75;;;6.70;;
42384;SDS011;28042;43.986;22.860;2023-04-21T00:51:57;11.05;;;6.57;;
42384;SDS011;28042;43.986;22.860;2023-04-21T00:54:23;8.80;;;6.30;;
42384;SDS011;28042;43.986;22.860;2023-04-21T00:56:51;11.55;;;7.60;;
42384;SDS011;28042;43.986;22.860;2023-04-21T00:59:19;11.93;;;7.72;;
42384;SDS011;28042;43.986;22.860;2023-04-21T01:01:45;12.02;;;6.88;;
42384;SDS011;28042;43.986;22.860;2023-04-21T01:04:10;10.75;;;6.82;;
42384;SDS011;28042;43.986;22.860;2023-04-21T01:06:36;8.15;;;6.25;;
42384;SDS011;28042;43.986;22.860;2023-04-21T01:09:02;11.85;;;7.18;;
42384;SDS011;28042;43.986;22.860;2023-04-21T01:11:30;10.32;;;7.10;;
42384;SDS011;28042;43.986;22.860;2023-04-21T01:13:57;9.43;;;7.60;;
42384;SDS011;28042;43.986;22.860;2023-04-21T01:16:42;11.00;;;7.22;;
42384;SDS011;28042;43.986;22.860;2023-04-21T01:19:08;12.45;;;6.90;;
42384;SDS011;28042;43.986;22.860;2023-04-21T01:21:38;12.80;;;7.13;;
42384;SDS011;28042;43.986;22.860;2023-04-21T01:24:07;14.93;;;7.30;;
42384;SDS011;28042;43.986;22.860;2023-04-21T01:26:32;8.43;;;6.53;;
42384;SDS011;28042;43.986;22.860;2023-04-21T01:28:57;11.75;;;7.63;;
42384;SDS011;28042;43.986;22.860;2023-04-21T01:31:23;9.95;;;6.40;;
42384;SDS011;28042;43.986;22.860;2023-04-21T01:33:49;11.18;;;7.03;;
42384;SDS011;28042;43.986;22.860;2023-04-21T01:36:14;12.18;;;6.72;;
42384;SDS011;28042;43.986;22.860;2023-04-21T01:38:40;10.50;;;7.05;;
42384;SDS011;28042;43.986;22.860;2023-04-21T01:41:07;9.50;;;6.93;;
42384;SDS011;28042;43.986;22.860;2023-04-21T01:43:33;9.20;;;6.95;;
42384;SDS011;28042;43.986;22.860;2023-04-21T01:45:59;10.45;;;7.05;;
42384;SDS011;28042;43.986;22.860;2023-04-21T01:48:24;10.57;;;8.23;;
42384;SDS011;28042;43.986;22.860;2023-04-21T01:50:49;13.60;;;7.95;;
42384;SDS011;28042;43.986;22.860;2023-04-21T01:53:15;11.00;;;7.80;;
42384;SDS011;28042;43.986;22.860;2023-04-21T01:55:40;9.43;;;7.25;;
42384;SDS011;28042;43.986;22.860;2023-04-21T01:58:06;10.48;;;7.47;;
42384;SDS011;28042;43.986;22.860;2023-04-21T02:00:31;12.93;;;7.72;;
42384;SDS011;28042;43.986;22.860;2023-04-21T02:02:57;14.27;;;7.88;;
42384;SDS011;28042;43.986;22.860;2023-04-21T02:05:22;11.15;;;6.75;;
42384;SDS011;28042;43.986;22.860;2023-04-21T02:07:48;13.23;;;7.55;;
42384;SDS011;28042;43.986;22.860;2023-04-21T02:10:14;13.30;;;6.90;;
42384;SDS011;28042;43.986;22.860;2023-04-21T02:12:39;9.98;;;7.25;;
42384;SDS011;28042;43.986;22.860;2023-04-21T02:15:05;11.80;;;8.10;;
42384;SDS011;28042;43.986;22.860;2023-04-21T02:17:31;11.93;;;8.60;;
42384;SDS011;28042;43.986;22.860;2023-04-21T02:19:57;15.02;;;8.63;;
42384;SDS011;28042;43.986;22.860;2023-04-21T02:22:22;17.33;;;9.23;;
42384;SDS011;28042;43.986;22.860;2023-04-21T02:24:48;16.05;;;9.20;;
42384;SDS011;28042;43.986;22.860;2023-04-21T02:27:14;11.30;;;8.48;;
42384;SDS011;28042;43.986;22.860;2023-04-21T02:29:40;13.90;;;8.93;;
42384;SDS011;28042;43.986;22.860;2023-04-21T02:32:05;12.90;;;8.93;;
42384;SDS011;28042;43.986;22.860;2023-04-21T02:34:31;16.00;;;9.02;;
42384;SDS011;28042;43.986;22.860;2023-04-21T02:36:57;10.30;;;8.15;;
42384;SDS011;28042;43.986;22.860;2023-04-21T02:39:24;15.02;;;8.05;;
42384;SDS011;28042;43.986;22.860;2023-04-21T02:41:49;11.60;;;8.48;;
42384;SDS011;28042;43.986;22.860;2023-04-21T02:44:15;13.90;;;8.55;;
42384;SDS011;28042;43.986;22.860;2023-04-21T02:46:40;13.23;;;8.80;;
42384;SDS011;28042;43.986;22.860;2023-04-21T02:49:06;14.85;;;9.05;;
42384;SDS011;28042;43.986;22.860;2023-04-21T02:51:32;14.68;;;8.15;;
42384;SDS011;28042;43.986;22.860;2023-04-21T02:53:57;15.63;;;9.00;;
42384;SDS011;28042;43.986;22.860;2023-04-21T02:56:23;12.98;;;9.20;;
42384;SDS011;28042;43.986;22.860;2023-04-21T02:58:48;12.70;;;9.38;;
42384;SDS011;28042;43.986;22.860;2023-04-21T03:01:14;129.23;;;86.32;;
42384;SDS011;28042;43.986;22.860;2023-04-21T03:03:40;67.55;;;53.78;;
42384;SDS011;28042;43.986;22.860;2023-04-21T03:06:05;20.23;;;17.55;;
42384;SDS011;28042;43.986;22.860;2023-04-21T03:08:31;14.23;;;10.02;;
42384;SDS011;28042;43.986;22.860;2023-04-21T03:10:57;14.07;;;9.43;;
42384;SDS011;28042;43.986;22.860;2023-04-21T03:13:22;17.52;;;11.73;;
42384;SDS011;28042;43.986;22.860;2023-04-21T03:15:48;24.70;;;20.65;;
42384;SDS011;28042;43.986;22.860;2023-04-21T03:18:14;18.40;;;11.57;;
42384;SDS011;28042;43.986;22.860;2023-04-21T03:20:40;11.23;;;9.48;;
42384;SDS011;28042;43.986;22.860;2023-04-21T03:23:06;16.77;;;10.77;;
42384;SDS011;28042;43.986;22.860;2023-04-21T03:25:31;16.23;;;9.85;;
42384;SDS011;28042;43.986;22.860;2023-04-21T03:27:57;15.68;;;9.18;;
42384;SDS011;28042;43.986;22.860;2023-04-21T03:30:22;13.98;;;9.05;;
42384;SDS011;28042;43.986;22.860;2023-04-21T03:32:50;18.63;;;9.25;;
42384;SDS011;28042;43.986;22.860;2023-04-21T03:35:16;14.68;;;9.68;;
42384;SDS011;28042;43.986;22.860;2023-04-21T03:37:41;12.15;;;9.25;;
42384;SDS011;28042;43.986;22.860;2023-04-21T03:40:07;21.98;;;13.27;;
42384;SDS011;28042;43.986;22.860;2023-04-21T03:42:36;16.48;;;12.38;;
42384;SDS011;28042;43.986;22.860;2023-04-21T03:45:05;15.27;;;11.30;;
42384;SDS011;28042;43.986;22.860;2023-04-21T03:47:32;16.83;;;10.65;;
42384;SDS011;28042;43.986;22.860;2023-04-21T03:49:57;15.45;;;9.73;;
42384;SDS011;28042;43.986;22.860;2023-04-21T03:52:23;18.20;;;11.43;;
42384;SDS011;28042;43.986;22.860;2023-04-21T03:54:49;18.42;;;15.60;;
42384;SDS011;28042;43.986;22.860;2023-04-21T03:57:14;22.75;;;18.02;;
42384;SDS011;28042;43.986;22.860;2023-04-21T03:59:40;24.20;;;15.52;;
42384;SDS011;28042;43.986;22.860;2023-04-21T04:02:06;14.68;;;10.38;;
42384;SDS011;28042;43.986;22.860;2023-04-21T04:04:32;24.30;;;17.98;;
42384;SDS011;28042;43.986;22.860;2023-04-21T04:06:57;24.10;;;15.07;;
42384;SDS011;28042;43.986;22.860;2023-04-21T04:09:23;19.58;;;12.82;;
42384;SDS011;28042;43.986;22.860;2023-04-21T04:11:49;16.30;;;11.52;;
42384;SDS011;28042;43.986;22.860;2023-04-21T04:14:14;14.65;;;8.65;;
42384;SDS011;28042;43.986;22.860;2023-04-21T04:16:40;15.85;;;11.65;;
42384;SDS011;28042;43.986;22.860;2023-04-21T04:19:05;14.20;;;10.20;;
42384;SDS011;28042;43.986;22.860;2023-04-21T04:21:31;13.23;;;9.38;;
42384;SDS011;28042;43.986;22.860;2023-04-21T04:23:57;20.50;;;10.60;;
42384;SDS011;28042;43.986;22.860;2023-04-21T04:26:23;17.63;;;9.88;;
42384;SDS011;28042;43.986;22.860;2023-04-21T04:28:50;22.98;;;11.18;;
42384;SDS011;28042;43.986;22.860;2023-04-21T04:31:20;18.40;;;10.88;;
42384;SDS011;28042;43.986;22.860;2023-04-21T04:33:49;11.73;;;8.40;;
42384;SDS011;28042;43.986;22.860;2023-04-21T04:36:15;18.52;;;12.10;;
42384;SDS011;28042;43.986;22.860;2023-04-21T04:38:40;14.43;;;10.55;;
42384;SDS011;28042;43.986;22.860;2023-04-21T04:41:06;14.55;;;9.25;;
42384;SDS011;28042;43.986;22.860;2023-04-21T04:43:32;25.63;;;8.98;;
42384;SDS011;28042;43.986;22.860;2023-04-21T04:46:00;21.40;;;9.60;;
42384;SDS011;28042;43.986;22.860;2023-04-21T04:48:26;21.13;;;9.85;;
42384;SDS011;28042;43.986;22.860;2023-04-21T04:50:52;18.90;;;9.80;;
42384;SDS011;28042;43.986;22.860;2023-04-21T04:53:17;21.50;;;12.90;;
42384;SDS011;28042;43.986;22.860;2023-04-21T04:55:43;12.88;;;8.50;;
42384;SDS011;28042;43.986;22.860;2023-04-21T04:58:08;14.57;;;8.10;;
42384;SDS011;28042;43.986;22.860;2023-04-21T05:00:34;18.48;;;6.75;;
42384;SDS011;28042;43.986;22.860;2023-04-21T05:03:01;12.13;;;7.77;;
42384;SDS011;28042;43.986;22.860;2023-04-21T05:05:26;12.50;;;7.05;;
42384;SDS011;28042;43.986;22.860;2023-04-21T05:07:51;19.50;;;7.78;;
42384;SDS011;28042;43.986;22.860;2023-04-21T05:10:17;15.98;;;11.10;;
42384;SDS011;28042;43.986;22.860;2023-04-21T05:12:42;13.35;;;7.22;;
42384;SDS011;28042;43.986;22.860;2023-04-21T05:15:08;14.05;;;6.70;;
42384;SDS011;28042;43.986;22.860;2023-04-21T05:17:34;13.68;;;9.10;;
42384;SDS011;28042;43.986;22.860;2023-04-21T05:20:00;17.92;;;7.32;;
42384;SDS011;28042;43.986;22.860;2023-04-21T05:22:25;9.20;;;5.07;;
42384;SDS011;28042;43.986;22.860;2023-04-21T05:24:51;16.05;;;7.10;;
42384;SDS011;28042;43.986;22.860;2023-04-21T05:27:17;19.25;;;6.50;;
42384;SDS011;28042;43.986;22.860;2023-04-21T05:29:42;17.55;;;6.75;;
42384;SDS011;28042;43.986;22.860;2023-04-21T05:32:08;12.07;;;5.82;;
42384;SDS011;28042;43.986;22.860;2023-04-21T05:34:36;14.50;;;6.75;;
42384;SDS011;28042;43.986;22.860;2023-04-21T05:37:02;9.93;;;5.10;;
42384;SDS011;28042;43.986;22.860;2023-04-21T05:39:27;12.13;;;5.50;;
42384;SDS011;28042;43.986;22.860;2023-04-21T05:41:52;12.45;;;6.40;;
42384;SDS011;28042;43.986;22.860;2023-04-21T05:44:18;15.52;;;6.20;;
42384;SDS011;28042;43.986;22.860;2023-04-21T05:46:43;14.02;;;5.55;;
42384;SDS011;28042;43.986;22.860;2023-04-21T05:49:09;14.02;;;6.60;;
42384;SDS011;28042;43.986;22.860;2023-04-21T05:51:34;14.85;;;6.05;;
42384;SDS011;28042;43.986;22.860;2023-04-21T05:54:00;10.90;;;6.30;;
42384;SDS011;28042;43.986;22.860;2023-04-21T05:56:25;13.18;;;6.55;;
42384;SDS011;28042;43.986;22.860;2023-04-21T05:58:51;11.55;;;5.75;;
42384;SDS011;28042;43.986;22.860;2023-04-21T06:01:16;13.32;;;5.75;;
42384;SDS011;28042;43.986;22.860;2023-04-21T06:03:42;12.45;;;5.60;;
42384;SDS011;28042;43.986;22.860;2023-04-21T06:06:07;11.23;;;6.45;;
42384;SDS011;28042;43.986;22.860;2023-04-21T06:08:34;13.20;;;5.72;;
42384;SDS011;28042;43.986;22.860;2023-04-21T06:10:59;11.98;;;5.65;;
42384;SDS011;28042;43.986;22.860;2023-04-21T06:13:25;10.23;;;5.60;;
42384;SDS011;28042;43.986;22.860;2023-04-21T06:15:52;10.35;;;4.82;;
42384;SDS011;28042;43.986;22.860;2023-04-21T06:18:20;7.80;;;5.25;;
42384;SDS011;28042;43.986;22.860;2023-04-21T06:20:52;14.13;;;6.13;;
42384;SDS011;28042;43.986;22.860;2023-04-21T06:23:18;9.25;;;5.05;;
42384;SDS011;28042;43.986;22.860;2023-04-21T06:25:45;7.28;;;4.53;;
42384;SDS011;28042;43.986;22.860;2023-04-21T06:28:10;10.98;;;5.78;;
42384;SDS011;28042;43.986;22.860;2023-04-21T06:30:36;13.60;;;5.22;;
42384;SDS011;28042;43.986;22.860;2023-04-21T06:33:02;9.25;;;5.35;;
42384;SDS011;28042;43.986;22.860;2023-04-21T06:35:28;14.15;;;6.00;;
42384;SDS011;28042;43.986;22.860;2023-04-21T06:37:54;17.23;;;8.38;;
42384;SDS011;28042;43.986;22.860;2023-04-21T06:40:20;12.57;;;5.57;;
42384;SDS011;28042;43.986;22.860;2023-04-21T06:42:45;8.45;;;5.05;;
42384;SDS011;28042;43.986;22.860;2023-04-21T06:45:11;14.52;;;5.53;;
42384;SDS011;28042;43.986;22.860;2023-04-21T06:47:36;22.58;;;5.55;;
42384;SDS011;28042;43.986;22.860;2023-04-21T06:50:02;13.90;;;5.82;;
42384;SDS011;28042;43.986;22.860;2023-04-21T06:52:28;21.70;;;5.85;;
42384;SDS011;28042;43.986;22.860;2023-04-21T06:54:53;9.38;;;5.07;;
42384;SDS011;28042;43.986;22.860;2023-04-21T06:57:19;9.00;;;4.70;;
42384;SDS011;28042;43.986;22.860;2023-04-21T06:59:44;8.65;;;5.32;;
42384;SDS011;28042;43.986;22.860;2023-04-21T07:02:10;14.55;;;5.70;;
42384;SDS011;28042;43.986;22.860;2023-04-21T07:04:35;9.68;;;4.93;;
42384;SDS011;28042;43.986;22.860;2023-04-21T07:07:01;10.60;;;4.90;;
42384;SDS011;28042;43.986;22.860;2023-04-21T07:09:27;11.55;;;5.10;;
42384;SDS011;28042;43.986;22.860;2023-04-21T07:11:53;10.20;;;5.20;;
42384;SDS011;28042;43.986;22.860;2023-04-21T07:14:19;11.97;;;4.97;;
42384;SDS011;28042;43.986;22.860;2023-04-21T07:16:45;10.32;;;5.43;;
42384;SDS011;28042;43.986;22.860;2023-04-21T07:19:10;19.63;;;6.07;;
42384;SDS011;28042;43.986;22.860;2023-04-21T07:21:36;10.23;;;5.05;;
42384;SDS011;28042;43.986;22.860;2023-04-21T07:24:02;19.70;;;6.20;;
42384;SDS011;28042;43.986;22.860;2023-04-21T07:26:28;11.02;;;5.05;;
42384;SDS011;28042;43.986;22.860;2023-04-21T07:28:53;7.88;;;4.63;;
42384;SDS011;28042;43.986;22.860;2023-04-21T07:31:22;11.43;;;5.20;;
42384;SDS011;28042;43.986;22.860;2023-04-21T07:33:48;7.25;;;4.72;;
42384;SDS011;28042;43.986;22.860;2023-04-21T07:36:13;9.43;;;5.20;;
42384;SDS011;28042;43.986;22.860;2023-04-21T07:38:39;10.18;;;4.80;;
42384;SDS011;28042;43.986;22.860;2023-04-21T07:43:33;11.52;;;4.78;;
42384;SDS011;28042;43.986;22.860;2023-04-21T07:45:58;16.60;;;5.90;;
42384;SDS011;28042;43.986;22.860;2023-04-21T07:48:24;8.10;;;4.70;;
42384;SDS011;28042;43.986;22.860;2023-04-21T07:50:49;12.70;;;6.13;;
42384;SDS011;28042;43.986;22.860;2023-04-21T07:53:15;8.10;;;5.10;;
42384;SDS011;28042;43.986;22.860;2023-04-21T07:55:40;12.65;;;5.30;;
42384;SDS011;28042;43.986;22.860;2023-04-21T07:58:06;13.63;;;5.18;;
42384;SDS011;28042;43.986;22.860;2023-04-21T08:00:31;11.63;;;4.70;;
42384;SDS011;28042;43.986;22.860;2023-04-21T08:02:57;9.27;;;4.80;;
42384;SDS011;28042;43.986;22.860;2023-04-21T08:05:22;10.32;;;5.00;;
42384;SDS011;28042;43.986;22.860;2023-04-21T08:07:48;10.70;;;5.07;;
42384;SDS011;28042;43.986;22.860;2023-04-21T08:10:13;12.00;;;5.82;;
42384;SDS011;28042;43.986;22.860;2023-04-21T08:12:39;12.98;;;4.75;;
42384;SDS011;28042;43.986;22.860;2023-04-21T08:15:04;8.93;;;5.22;;
42384;SDS011;28042;43.986;22.860;2023-04-21T08:17:32;9.57;;;5.28;;
42384;SDS011;28042;43.986;22.860;2023-04-21T08:19:58;16.75;;;5.65;;
42384;SDS011;28042;43.986;22.860;2023-04-21T08:22:23;8.30;;;5.00;;
42384;SDS011;28042;43.986;22.860;2023-04-21T08:24:49;7.88;;;5.10;;
42384;SDS011;28042;43.986;22.860;2023-04-21T08:27:15;8.32;;;4.80;;
42384;SDS011;28042;43.986;22.860;2023-04-21T08:29:40;11.88;;;5.40;;
42384;SDS011;28042;43.986;22.860;2023-04-21T08:32:06;10.27;;;5.38;;
42384;SDS011;28042;43.986;22.860;2023-04-21T08:34:31;9.55;;;4.90;;
42384;SDS011;28042;43.986;22.860;2023-04-21T08:36:57;8.07;;;4.88;;
42384;SDS011;28042;43.986;22.860;2023-04-21T08:39:22;8.18;;;5.20;;
42384;SDS011;28042;43.986;22.860;2023-04-21T08:41:47;7.32;;;5.15;;
42384;SDS011;28042;43.986;22.860;2023-04-21T08:44:14;9.00;;;5.28;;
42384;SDS011;28042;43.986;22.860;2023-04-21T08:46:40;7.65;;;5.22;;
42384;SDS011;28042;43.986;22.860;2023-04-21T08:49:08;8.85;;;5.57;;
42384;SDS011;28042;43.986;22.860;2023-04-21T08:51:34;11.20;;;5.18;;
42384;SDS011;28042;43.986;22.860;2023-04-21T08:54:00;7.63;;;4.78;;
42384;SDS011;28042;43.986;22.860;2023-04-21T08:56:25;12.00;;;5.10;;
42384;SDS011;28042;43.986;22.860;2023-04-21T08:58:52;11.05;;;5.18;;
42384;SDS011;28042;43.986;22.860;2023-04-21T09:01:17;8.70;;;5.40;;
42384;SDS011;28042;43.986;22.860;2023-04-21T09:03:43;12.63;;;5.20;;
42384;SDS011;28042;43.986;22.860;2023-04-21T09:06:09;6.38;;;4.20;;
42384;SDS011;28042;43.986;22.860;2023-04-21T09:08:37;10.60;;;4.70;;
42384;SDS011;28042;43.986;22.860;2023-04-21T09:11:06;11.35;;;4.80;;
42384;SDS011;28042;43.986;22.860;2023-04-21T09:13:32;9.13;;;4.50;;
42384;SDS011;28042;43.986;22.860;2023-04-21T09:16:00;11.98;;;4.50;;
42384;SDS011;28042;43.986;22.860;2023-04-21T09:18:27;11.63;;;4.40;;
42384;SDS011;28042;43.986;22.860;2023-04-21T09:21:10;14.77;;;4.25;;
42384;SDS011;28042;43.986;22.860;2023-04-21T09:23:41;11.15;;;4.90;;
42384;SDS011;28042;43.986;22.860;2023-04-21T09:28:34;9.60;;;4.40;;
42384;SDS011;28042;43.986;22.860;2023-04-21T09:31:00;7.63;;;4.47;;
42384;SDS011;28042;43.986;22.860;2023-04-21T09:33:25;9.90;;;4.32;;
42384;SDS011;28042;43.986;22.860;2023-04-21T09:35:51;8.80;;;4.50;;
42384;SDS011;28042;43.986;22.860;2023-04-21T09:38:17;6.35;;;3.58;;
42384;SDS011;28042;43.986;22.860;2023-04-21T09:40:55;8.57;;;4.10;;
42384;SDS011;28042;43.986;22.860;2023-04-21T09:43:21;6.90;;;4.07;;
42384;SDS011;28042;43.986;22.860;2023-04-21T09:45:46;6.85;;;3.70;;
42384;SDS011;28042;43.986;22.860;2023-04-21T09:48:13;11.87;;;4.20;;
42384;SDS011;28042;43.986;22.860;2023-04-21T09:50:41;8.82;;;4.15;;
42384;SDS011;28042;43.986;22.860;2023-04-21T09:53:07;7.15;;;4.18;;
42384;SDS011;28042;43.986;22.860;2023-04-21T09:55:41;6.90;;;4.15;;
42384;SDS011;28042;43.986;22.860;2023-04-21T09:58:07;10.70;;;4.57;;
42384;SDS011;28042;43.986;22.860;2023-04-21T10:00:36;9.85;;;4.05;;
42384;SDS011;28042;43.986;22.860;2023-04-21T10:03:04;7.15;;;4.45;;
42384;SDS011;28042;43.986;22.860;2023-04-21T10:05:34;6.45;;;3.95;;
42384;SDS011;28042;43.986;22.860;2023-04-21T10:08:01;8.60;;;4.07;;
42384;SDS011;28042;43.986;22.860;2023-04-21T10:10:28;8.40;;;4.47;;
42384;SDS011;28042;43.986;22.860;2023-04-21T10:12:58;10.30;;;4.68;;
42384;SDS011;28042;43.986;22.860;2023-04-21T10:15:31;7.65;;;3.78;;
42384;SDS011;28042;43.986;22.860;2023-04-21T10:18:15;8.40;;;4.10;;
42384;SDS011;28042;43.986;22.860;2023-04-21T10:25:51;8.18;;;3.97;;
42384;SDS011;28042;43.986;22.860;2023-04-21T10:28:19;9.57;;;3.70;;
42384;SDS011;28042;43.986;22.860;2023-04-21T10:30:45;9.73;;;4.53;;
42384;SDS011;28042;43.986;22.860;2023-04-21T10:33:10;9.20;;;3.75;;
42384;SDS011;28042;43.986;22.860;2023-04-21T10:38:33;8.48;;;4.10;;
42384;SDS011;28042;43.986;22.860;2023-04-21T10:43:51;6.20;;;4.22;;
42384;SDS011;28042;43.986;22.860;2023-04-21T10:46:36;6.40;;;3.55;;
42384;SDS011;28042;43.986;22.860;2023-04-21T10:49:24;7.57;;;3.75;;
42384;SDS011;28042;43.986;22.860;2023-04-21T10:52:11;7.78;;;3.85;;
42384;SDS011;28042;43.986;22.860;2023-04-21T10:57:32;8.02;;;3.38;;
42384;SDS011;28042;43.986;22.860;2023-04-21T10:59:59;6.93;;;3.78;;
42384;SDS011;28042;43.986;22.860;2023-04-21T11:02:25;7.03;;;3.40;;
42384;SDS011;28042;43.986;22.860;2023-04-21T11:04:54;6.40;;;3.80;;
42384;SDS011;28042;43.986;22.860;2023-04-21T11:07:23;7.63;;;3.92;;
42384;SDS011;28042;43.986;22.860;2023-04-21T11:09:58;7.25;;;3.78;;
42384;SDS011;28042;43.986;22.860;2023-04-21T11:12:25;11.23;;;4.50;;
42384;SDS011;28042;43.986;22.860;2023-04-21T11:14:55;12.70;;;4.47;;
42384;SDS011;28042;43.986;22.860;2023-04-21T11:17:21;7.68;;;4.43;;
42384;SDS011;28042;43.986;22.860;2023-04-21T11:19:50;7.38;;;3.67;;
42384;SDS011;28042;43.986;22.860;2023-04-21T11:22:20;15.00;;;4.25;;
42384;SDS011;28042;43.986;22.860;2023-04-21T11:24:49;6.28;;;3.72;;
42384;SDS011;28042;43.986;22.860;2023-04-21T11:27:17;11.23;;;3.88;;
42384;SDS011;28042;43.986;22.860;2023-04-21T11:29:43;12.13;;;4.30;;
42384;SDS011;28042;43.986;22.860;2023-04-21T11:32:10;6.07;;;3.45;;
42384;SDS011;28042;43.986;22.860;2023-04-21T11:34:37;9.07;;;3.72;;
42384;SDS011;28042;43.986;22.860;2023-04-21T11:37:03;10.48;;;3.40;;
42384;SDS011;28042;43.986;22.860;2023-04-21T11:39:31;10.52;;;4.18;;
42384;SDS011;28042;43.986;22.860;2023-04-21T11:41:56;8.45;;;3.95;;
42384;SDS011;28042;43.986;22.860;2023-04-21T11:46:56;9.95;;;4.15;;
42384;SDS011;28042;43.986;22.860;2023-04-21T11:49:23;9.57;;;4.28;;
42384;SDS011;28042;43.986;22.860;2023-04-21T11:51:53;10.55;;;4.30;;
42384;SDS011;28042;43.986;22.860;2023-04-21T11:54:19;11.75;;;3.92;;
42384;SDS011;28042;43.986;22.860;2023-04-21T11:56:48;5.55;;;3.90;;
42384;SDS011;28042;43.986;22.860;2023-04-21T11:59:18;7.30;;;3.72;;
42384;SDS011;28042;43.986;22.860;2023-04-21T12:01:51;7.30;;;3.67;;
42384;SDS011;28042;43.986;22.860;2023-04-21T12:04:19;11.90;;;4.20;;
42384;SDS011;28042;43.986;22.860;2023-04-21T12:06:53;10.00;;;4.50;;
42384;SDS011;28042;43.986;22.860;2023-04-21T12:09:21;11.10;;;4.30;;
42384;SDS011;28042;43.986;22.860;2023-04-21T12:11:47;8.27;;;4.05;;
42384;SDS011;28042;43.986;22.860;2023-04-21T12:14:14;7.43;;;3.92;;
42384;SDS011;28042;43.986;22.860;2023-04-21T12:16:40;9.63;;;3.65;;
42384;SDS011;28042;43.986;22.860;2023-04-21T12:19:07;8.40;;;4.07;;
42384;SDS011;28042;43.986;22.860;2023-04-21T12:21:35;13.82;;;3.95;;
42384;SDS011;28042;43.986;22.860;2023-04-21T12:24:03;8.45;;;3.58;;
42384;SDS011;28042;43.986;22.860;2023-04-21T12:26:29;6.28;;;3.88;;
42384;SDS011;28042;43.986;22.860;2023-04-21T12:28:54;6.85;;;4.00;;
42384;SDS011;28042;43.986;22.860;2023-04-21T12:31:20;9.82;;;3.90;;
42384;SDS011;28042;43.986;22.860;2023-04-21T12:33:45;6.43;;;3.40;;
42384;SDS011;28042;43.986;22.860;2023-04-21T12:36:11;11.13;;;4.13;;
42384;SDS011;28042;43.986;22.860;2023-04-21T12:38:37;8.07;;;3.78;;
42384;SDS011;28042;43.986;22.860;2023-04-21T12:41:02;7.45;;;3.92;;
42384;SDS011;28042;43.986;22.860;2023-04-21T12:43:28;9.40;;;4.13;;
42384;SDS011;28042;43.986;22.860;2023-04-21T12:45:53;13.23;;;4.20;;
42384;SDS011;28042;43.986;22.860;2023-04-21T12:48:19;6.15;;;3.42;;
42384;SDS011;28042;43.986;22.860;2023-04-21T12:50:44;6.47;;;3.65;;
42384;SDS011;28042;43.986;22.860;2023-04-21T12:53:13;8.18;;;3.72;;
42384;SDS011;28042;43.986;22.860;2023-04-21T12:55:39;9.50;;;4.05;;
42384;SDS011;28042;43.986;22.860;2023-04-21T12:58:04;8.48;;;3.45;;
42384;SDS011;28042;43.986;22.860;2023-04-21T13:00:30;10.65;;;3.80;;
42384;SDS011;28042;43.986;22.860;2023-04-21T13:02:57;6.10;;;3.92;;
42384;SDS011;28042;43.986;22.860;2023-04-21T13:05:22;8.95;;;3.47;;
42384;SDS011;28042;43.986;22.860;2023-04-21T13:07:48;6.78;;;3.47;;
42384;SDS011;28042;43.986;22.860;2023-04-21T13:10:13;16.65;;;4.47;;
42384;SDS011;28042;43.986;22.860;2023-04-21T13:12:40;11.27;;;3.58;;
42384;SDS011;28042;43.986;22.860;2023-04-21T13:15:06;10.13;;;3.60;;
42384;SDS011;28042;43.986;22.860;2023-04-21T13:17:32;8.23;;;3.88;;
42384;SDS011;28042;43.986;22.860;2023-04-21T13:19:58;9.90;;;4.05;;
42384;SDS011;28042;43.986;22.860;2023-04-21T13:22:23;9.75;;;3.67;;
42384;SDS011;28042;43.986;22.860;2023-04-21T13:24:48;15.27;;;3.20;;
42384;SDS011;28042;43.986;22.860;2023-04-21T13:27:14;7.18;;;3.08;;
42384;SDS011;28042;43.986;22.860;2023-04-21T13:29:39;12.75;;;3.22;;
42384;SDS011;28042;43.986;22.860;2023-04-21T13:32:05;11.75;;;3.22;;
42384;SDS011;28042;43.986;22.860;2023-04-21T13:34:32;6.47;;;3.03;;
42384;SDS011;28042;43.986;22.860;2023-04-21T13:36:59;10.82;;;2.90;;
42384;SDS011;28042;43.986;22.860;2023-04-21T13:39:25;6.70;;;2.70;;
42384;SDS011;28042;43.986;22.860;2023-04-21T13:41:51;7.90;;;2.70;;
42384;SDS011;28042;43.986;22.860;2023-04-21T13:44:17;6.75;;;2.78;;
42384;SDS011;28042;43.986;22.860;2023-04-21T13:46:43;7.18;;;3.10;;
42384;SDS011;28042;43.986;22.860;2023-04-21T13:49:09;6.88;;;2.72;;
42384;SDS011;28042;43.986;22.860;2023-04-21T13:51:35;7.18;;;2.83;;
42384;SDS011;28042;43.986;22.860;2023-04-21T13:54:01;5.80;;;3.00;;
42384;SDS011;28042;43.986;22.860;2023-04-21T13:56:26;10.88;;;2.90;;
42384;SDS011;28042;43.986;22.860;2023-04-21T13:58:52;4.88;;;2.92;;
42384;SDS011;28042;43.986;22.860;2023-04-21T14:01:19;4.88;;;2.40;;
42384;SDS011;28042;43.986;22.860;2023-04-21T14:03:44;12.52;;;3.72;;
42384;SDS011;28042;43.986;22.860;2023-04-21T14:06:10;8.00;;;3.03;;
42384;SDS011;28042;43.986;22.860;2023-04-21T14:08:36;6.82;;;2.78;;
42384;SDS011;28042;43.986;22.860;2023-04-21T14:11:01;4.30;;;2.63;;
42384;SDS011;28042;43.986;22.860;2023-04-21T14:13:27;8.77;;;3.40;;
42384;SDS011;28042;43.986;22.860;2023-04-21T14:15:54;9.23;;;3.08;;
42384;SDS011;28042;43.986;22.860;2023-04-21T14:18:21;5.93;;;3.00;;
42384;SDS011;28042;43.986;22.860;2023-04-21T14:20:47;9.13;;;3.15;;
42384;SDS011;28042;43.986;22.860;2023-04-21T14:23:12;5.63;;;2.63;;
42384;SDS011;28042;43.986;22.860;2023-04-21T14:25:38;6.47;;;2.72;;
42384;SDS011;28042;43.986;22.860;2023-04-21T14:28:03;6.82;;;3.28;;
42384;SDS011;28042;43.986;22.860;2023-04-21T14:30:35;8.30;;;3.20;;
42384;SDS011;28042;43.986;22.860;2023-04-21T14:33:01;9.70;;;3.63;;
42384;SDS011;28042;43.986;22.860;2023-04-21T14:35:27;9.95;;;3.17;;
42384;SDS011;28042;43.986;22.860;2023-04-21T14:37:53;7.97;;;3.60;;
42384;SDS011;28042;43.986;22.860;2023-04-21T14:40:18;11.15;;;3.13;;
42384;SDS011;28042;43.986;22.860;2023-04-21T14:42:44;7.97;;;3.45;;
42384;SDS011;28042;43.986;22.860;2023-04-21T14:45:10;7.03;;;3.80;;